createdAt,value
2023-01-17T08:16:18.662Z,15.50
2023-01-17T08:17:21.676Z,27.55
2023-01-17T08:18:23.255Z,15.55
2023-01-17T08:19:25.883Z,20.15
2023-01-17T08:20:28.102Z,23.08
2023-01-17T08:21:30.898Z,18.08
2023-01-17T08:22:32.456Z,27.90
2023-01-17T08:23:38.910Z,21.20
2023-01-17T08:24:41.810Z,19.75
2023-01-17T08:25:44.338Z,17.88
2023-01-17T08:26:45.864Z,19.73
2023-01-17T08:27:48.371Z,16.73
2023-01-17T08:28:55.682Z,15.48
2023-01-17T08:29:58.293Z,29.45
2023-01-17T08:31:11.202Z,19.60
2023-01-17T08:32:25.226Z,20.63
2023-01-17T08:33:36.963Z,17.42
2023-01-17T08:34:49.548Z,19.90
2023-01-17T08:35:53.421Z,13.50
2023-01-17T08:36:56.210Z,15.00
2023-01-17T08:38:09.800Z,12.88
2023-01-17T08:39:23.002Z,14.23
2023-01-17T08:40:35.527Z,17.08
2023-01-17T08:41:47.167Z,18.83
2023-01-17T08:42:56.721Z,22.00
2023-01-17T08:44:09.297Z,15.15
2023-01-17T08:45:17.962Z,15.68
2023-01-17T08:46:32.173Z,16.30
2023-01-17T08:47:46.781Z,17.73
2023-01-17T08:49:01.194Z,20.15
2023-01-17T08:50:03.468Z,14.73
2023-01-17T08:51:07.434Z,21.83
2023-01-17T08:52:13.005Z,15.88
2023-01-17T08:53:25.722Z,15.15
2023-01-17T08:54:37.289Z,13.70
2023-01-17T08:55:51.158Z,14.15
2023-01-17T08:57:04.998Z,15.27
2023-01-17T08:58:07.589Z,13.75
2023-01-17T08:59:11.576Z,16.48
2023-01-17T09:00:24.216Z,25.40
2023-01-17T09:01:41.632Z,20.20
2023-01-17T09:02:55.700Z,12.73
2023-01-17T09:04:08.709Z,12.18
2023-01-17T09:05:13.460Z,11.82
2023-01-17T09:06:25.996Z,18.77
2023-01-17T09:07:38.779Z,21.00
2023-01-17T09:08:54.697Z,14.38
2023-01-17T09:10:07.001Z,10.73
2023-01-17T09:11:11.144Z,15.25
2023-01-17T09:12:13.872Z,15.80
2023-01-17T09:13:16.865Z,20.08
2023-01-17T09:14:19.437Z,14.07
2023-01-17T09:15:22.016Z,14.52
2023-01-17T09:16:23.549Z,15.52
2023-01-17T09:17:26.079Z,13.40
2023-01-17T09:18:37.041Z,17.80
2023-01-17T09:19:49.615Z,11.48
2023-01-17T09:21:10.871Z,12.73
2023-01-17T09:22:13.489Z,13.55
2023-01-17T09:23:15.098Z,11.85
2023-01-17T09:24:17.661Z,10.57
2023-01-17T09:25:20.152Z,14.80
2023-01-17T09:26:25.640Z,11.45
2023-01-17T09:27:27.289Z,18.33
2023-01-17T09:28:29.980Z,11.25
2023-01-17T09:29:32.518Z,10.98
2023-01-17T09:30:35.065Z,17.27
2023-01-17T09:31:36.619Z,11.00
2023-01-17T09:32:39.487Z,17.48
2023-01-17T09:33:48.234Z,10.90
2023-01-17T09:34:49.996Z,12.48
2023-01-17T09:36:05.286Z,13.55
2023-01-17T09:37:09.543Z,12.38
2023-01-17T09:38:11.412Z,14.50
2023-01-17T09:39:15.178Z,11.35
2023-01-17T09:40:23.682Z,12.65
2023-01-17T09:41:29.352Z,11.27
2023-01-17T09:42:35.696Z,13.27
2023-01-17T09:43:43.861Z,15.50
2023-01-17T09:44:54.042Z,12.80
2023-01-17T09:45:56.609Z,12.88
2023-01-17T09:47:03.548Z,10.75
2023-01-17T09:48:11.026Z,13.15
2023-01-17T09:49:34.224Z,12.35
2023-01-17T09:50:45.136Z,14.90
2023-01-17T09:51:47.626Z,15.60
2023-01-17T09:52:49.493Z,11.20
2023-01-17T09:53:54.010Z,10.75
2023-01-17T09:54:56.656Z,12.55
2023-01-17T09:56:03.115Z,15.82
2023-01-17T09:57:15.805Z,14.13
2023-01-17T09:58:24.687Z,12.57
2023-01-17T09:59:35.805Z,10.25
2023-01-17T10:00:49.376Z,10.00
2023-01-17T10:02:01.273Z,16.27
2023-01-17T10:03:24.722Z,13.60
2023-01-17T10:04:48.873Z,16.05
2023-01-17T10:06:02.264Z,14.25
2023-01-17T10:07:29.369Z,16.88
2023-01-17T10:08:48.513Z,14.65
2023-01-17T10:10:11.886Z,9.43
2023-01-17T10:11:41.724Z,11.30
2023-01-17T10:12:54.424Z,9.13
2023-01-17T10:14:10.799Z,10.95
2023-01-17T10:15:32.687Z,11.73
2023-01-17T10:16:44.703Z,20.88
2023-01-17T10:17:55.425Z,8.23
2023-01-17T10:19:14.438Z,13.25
2023-01-17T10:20:35.659Z,14.18
2023-01-17T10:22:01.996Z,11.82
2023-01-17T10:23:22.731Z,14.15
2023-01-17T10:25:12.908Z,10.15
2023-01-17T10:26:18.766Z,10.15
2023-01-17T10:27:25.677Z,16.48
2023-01-17T10:28:35.208Z,12.82
2023-01-17T10:29:37.068Z,13.48
2023-01-17T10:30:45.025Z,10.73
2023-01-17T10:31:52.625Z,10.32
2023-01-17T10:32:56.979Z,15.68
2023-01-17T10:34:06.913Z,9.38
2023-01-17T10:35:21.063Z,10.82
2023-01-17T10:36:28.758Z,10.65
2023-01-17T10:37:40.317Z,10.52
2023-01-17T10:38:47.091Z,18.38
2023-01-17T10:39:51.046Z,13.45
2023-01-17T10:40:57.231Z,19.67
2023-01-17T10:42:07.465Z,11.80
2023-01-17T10:43:18.910Z,11.38
2023-01-17T10:44:26.695Z,10.25
2023-01-17T10:45:40.751Z,16.75
2023-01-17T10:46:48.136Z,10.18
2023-01-17T10:47:58.958Z,15.10
2023-01-17T10:49:17.468Z,17.50
2023-01-17T10:50:34.318Z,11.85
2023-01-17T10:51:59.974Z,12.10
2023-01-17T10:53:10.693Z,14.77
2023-01-17T10:54:24.443Z,11.07
2023-01-17T10:55:38.860Z,12.35
2023-01-17T10:56:42.158Z,13.30
2023-01-17T10:57:46.531Z,11.90
2023-01-17T10:58:50.488Z,14.52
2023-01-17T10:59:54.804Z,13.45
2023-01-17T11:01:01.127Z,14.27
2023-01-17T11:02:06.854Z,11.35
2023-01-17T11:03:11.499Z,13.55
2023-01-17T11:04:20.659Z,11.20
2023-01-17T11:05:28.341Z,12.18
2023-01-17T11:06:33.901Z,16.55
2023-01-17T11:07:39.947Z,12.32
2023-01-17T11:08:52.076Z,11.65
2023-01-17T11:09:55.995Z,9.82
2023-01-17T11:11:04.987Z,8.82
2023-01-17T11:12:17.779Z,8.48
2023-01-17T11:13:33.067Z,17.33
2023-01-17T11:14:35.905Z,14.90
2023-01-17T11:15:41.802Z,7.63
2023-01-17T11:16:44.752Z,10.27
2023-01-17T11:17:52.987Z,15.05
2023-01-17T11:19:15.664Z,8.27
2023-01-17T11:20:33.295Z,20.58
2023-01-17T11:21:38.740Z,15.05
2023-01-17T11:22:46.885Z,7.85
2023-01-17T11:23:51.305Z,9.57
2023-01-17T11:24:59.994Z,16.92
2023-01-17T11:26:13.895Z,10.20
2023-01-17T11:27:25.584Z,16.92
2023-01-17T11:28:30.612Z,10.85
2023-01-17T11:29:36.821Z,9.60
2023-01-17T11:30:52.523Z,8.63
2023-01-17T11:31:57.079Z,14.25
2023-01-17T11:33:01.396Z,22.45
2023-01-17T11:34:14.841Z,14.32
2023-01-17T11:35:20.197Z,9.57
2023-01-17T11:36:27.971Z,13.48
2023-01-17T11:37:29.633Z,9.80
2023-01-17T11:38:33.618Z,10.35
2023-01-17T11:39:35.382Z,13.30
2023-01-17T11:40:40.468Z,7.13
2023-01-17T11:41:42.194Z,8.10
2023-01-17T11:42:44.716Z,7.70
2023-01-17T11:43:53.018Z,6.45
2023-01-17T11:44:55.532Z,11.63
2023-01-17T11:46:14.456Z,8.77
2023-01-17T11:47:19.905Z,13.90
2023-01-17T11:48:24.714Z,10.77
2023-01-17T11:49:26.917Z,9.75
2023-01-17T11:50:32.532Z,9.70
2023-01-17T11:51:41.848Z,10.30
2023-01-17T11:52:43.984Z,10.07
2023-01-17T11:53:49.007Z,18.20
2023-01-17T11:54:53.829Z,11.05
2023-01-17T11:56:05.071Z,14.55
2023-01-17T11:57:21.045Z,19.48
2023-01-17T11:58:24.091Z,7.38
2023-01-17T11:59:33.400Z,12.07
2023-01-17T12:00:45.824Z,8.35
2023-01-17T12:01:58.595Z,9.68
2023-01-17T12:03:26.651Z,8.13
2023-01-17T12:04:36.392Z,10.48
2023-01-17T12:05:51.173Z,10.82
2023-01-17T12:07:08.440Z,10.00
2023-01-17T12:08:19.670Z,8.55
2023-01-17T12:09:35.049Z,11.57
2023-01-17T12:10:45.121Z,20.45
2023-01-17T12:12:14.287Z,7.95
2023-01-17T12:13:53.379Z,15.32
2023-01-17T12:15:09.595Z,16.40
2023-01-17T12:16:29.544Z,11.40
2023-01-17T12:17:48.980Z,11.63
2023-01-17T12:19:06.591Z,19.13
2023-01-17T12:20:21.263Z,14.77
2023-01-17T12:21:36.176Z,9.70
2023-01-17T12:23:02.532Z,11.57
2023-01-17T12:24:28.945Z,11.00
2023-01-17T12:25:54.459Z,8.50
2023-01-17T12:27:07.871Z,8.95
2023-01-17T12:28:25.791Z,11.63
2023-01-17T12:29:51.228Z,8.95
2023-01-17T12:31:06.880Z,7.25
2023-01-17T12:32:36.824Z,8.90
2023-01-17T12:33:48.002Z,10.80
2023-01-17T12:34:55.481Z,8.02
2023-01-17T12:36:02.421Z,11.20
2023-01-17T12:37:21.873Z,12.98
2023-01-17T12:38:33.651Z,8.75
2023-01-17T12:39:39.335Z,10.15
2023-01-17T12:40:50.040Z,8.13
2023-01-17T12:42:00.308Z,11.02
2023-01-17T12:43:08.830Z,8.20
2023-01-17T12:44:16.084Z,10.55
2023-01-17T12:45:24.632Z,10.57
2023-01-17T12:46:31.924Z,13.02
2023-01-17T12:47:41.137Z,7.00
2023-01-17T12:48:45.158Z,9.57
2023-01-17T12:49:53.534Z,14.35
2023-01-17T12:51:03.752Z,11.88
2023-01-17T12:52:14.620Z,7.55
2023-01-17T12:53:27.175Z,8.18
2023-01-17T12:54:37.463Z,7.93
2023-01-17T12:55:49.710Z,10.63
2023-01-17T12:56:55.531Z,18.45
2023-01-17T12:58:00.135Z,9.43
2023-01-17T12:59:13.045Z,13.73
2023-01-17T13:00:19.539Z,15.05
2023-01-17T13:01:39.801Z,7.47
2023-01-17T13:02:50.712Z,14.05
2023-01-17T13:04:03.154Z,8.38
2023-01-17T13:05:12.246Z,9.05
2023-01-17T13:06:25.964Z,8.18
2023-01-17T13:07:38.255Z,10.50
2023-01-17T13:08:46.376Z,14.38
2023-01-17T13:09:53.246Z,7.75
2023-01-17T13:11:00.117Z,8.45
2023-01-17T13:12:05.986Z,4.88
2023-01-17T13:13:22.196Z,14.57
2023-01-17T13:14:24.925Z,11.18
2023-01-17T13:15:35.092Z,6.05
2023-01-17T13:16:43.060Z,12.52
2023-01-17T13:17:49.499Z,14.10
2023-01-17T13:18:53.407Z,15.65
2023-01-17T13:20:00.951Z,12.45
2023-01-17T13:21:21.632Z,11.63
2023-01-17T13:22:26.984Z,8.43
2023-01-17T13:23:33.295Z,7.93
2023-01-17T13:24:45.191Z,7.55
2023-01-17T13:25:58.182Z,16.85
2023-01-17T13:27:17.789Z,11.05
2023-01-17T13:28:37.318Z,6.53
2023-01-17T13:29:52.122Z,7.20
2023-01-17T13:31:10.088Z,10.45
2023-01-17T13:32:27.442Z,8.48
2023-01-17T13:33:42.230Z,6.97
2023-01-17T13:35:12.401Z,21.55
2023-01-17T13:36:29.707Z,9.93
2023-01-17T13:37:56.828Z,7.63
2023-01-17T13:39:42.846Z,7.03
2023-01-17T13:40:51.631Z,11.80
2023-01-17T13:42:09.488Z,6.28
2023-01-17T13:43:14.635Z,7.63
2023-01-17T13:44:26.734Z,7.05
2023-01-17T13:45:30.818Z,9.45
2023-01-17T13:47:00.826Z,9.77
2023-01-17T13:48:29.851Z,5.15
2023-01-17T13:49:34.413Z,7.43
2023-01-17T13:50:48.720Z,8.35
2023-01-17T13:52:09.491Z,6.07
2023-01-17T13:53:48.652Z,8.63
2023-01-17T13:54:53.230Z,7.25
2023-01-17T13:56:02.843Z,7.43
2023-01-17T13:57:42.013Z,5.95
2023-01-17T13:59:03.081Z,7.28
2023-01-17T14:00:50.466Z,6.25
2023-01-17T14:01:53.211Z,10.38
2023-01-17T14:03:12.793Z,10.10
2023-01-17T14:04:22.189Z,5.38
2023-01-17T14:05:49.103Z,10.68
2023-01-17T14:06:55.388Z,10.25
2023-01-17T14:08:01.873Z,12.63
2023-01-17T14:09:11.196Z,4.90
2023-01-17T14:10:29.368Z,9.40
2023-01-17T14:11:34.369Z,10.60
2023-01-17T14:12:40.011Z,7.70
2023-01-17T14:13:41.743Z,6.97
2023-01-17T14:14:52.680Z,12.13
2023-01-17T14:15:55.377Z,8.40
2023-01-17T14:17:26.543Z,4.40
2023-01-17T14:18:34.930Z,16.67
2023-01-17T14:19:37.012Z,7.53
2023-01-17T14:20:46.658Z,6.28
2023-01-17T14:21:50.213Z,12.85
2023-01-17T14:22:55.926Z,9.88
2023-01-17T14:24:07.386Z,9.27
2023-01-17T14:25:14.990Z,5.18
2023-01-17T14:26:49.766Z,13.13
2023-01-17T14:28:02.843Z,11.32
2023-01-17T14:29:43.798Z,10.90
2023-01-17T14:30:46.947Z,10.73
2023-01-17T14:31:49.217Z,12.57
2023-01-17T14:33:10.983Z,4.78
2023-01-17T14:34:13.768Z,8.48
2023-01-17T14:35:23.197Z,16.00
2023-01-17T14:36:30.724Z,13.85
2023-01-17T14:37:46.847Z,7.32
2023-01-17T14:38:48.438Z,6.47
2023-01-17T14:39:52.419Z,8.02
2023-01-17T14:40:56.931Z,9.27
2023-01-17T14:41:58.511Z,14.23
2023-01-17T14:43:06.694Z,13.15
2023-01-17T14:44:12.131Z,10.48
2023-01-17T14:45:22.508Z,8.77
2023-01-17T14:46:33.114Z,7.13
2023-01-17T14:47:37.947Z,6.88
2023-01-17T14:48:41.792Z,7.35
2023-01-17T14:49:44.069Z,3.83
2023-01-17T14:50:54.962Z,4.45
2023-01-17T14:52:00.690Z,7.65
2023-01-17T14:53:27.873Z,8.00
2023-01-17T14:54:29.604Z,6.47
2023-01-17T14:55:32.181Z,12.77
2023-01-17T14:56:34.950Z,6.53
2023-01-17T14:57:36.647Z,8.52
2023-01-17T14:58:41.150Z,7.90
2023-01-17T14:59:42.702Z,7.18
2023-01-17T15:00:46.501Z,6.80
2023-01-17T15:02:06.330Z,5.53
2023-01-17T15:03:12.230Z,7.05
2023-01-17T15:04:26.616Z,12.45
2023-01-17T15:05:29.849Z,6.80
2023-01-17T15:06:39.795Z,8.13
2023-01-17T15:07:45.809Z,6.78
2023-01-17T15:08:53.841Z,8.68
2023-01-17T15:09:56.340Z,10.10
2023-01-17T15:11:02.981Z,9.60
2023-01-17T15:12:15.536Z,12.07
2023-01-17T15:13:43.449Z,6.95
2023-01-17T15:14:48.015Z,6.78
2023-01-17T15:15:49.586Z,14.40
2023-01-17T15:16:52.306Z,9.93
2023-01-17T15:18:08.224Z,4.03
2023-01-17T15:19:12.218Z,4.50
2023-01-17T15:20:16.597Z,5.88
2023-01-17T15:21:30.766Z,3.33
2023-01-17T15:22:33.269Z,7.18
2023-01-17T15:23:39.121Z,5.80
2023-01-17T15:24:45.124Z,11.80
2023-01-17T15:25:47.623Z,5.50
2023-01-17T15:26:50.652Z,10.27
2023-01-17T15:27:55.183Z,5.57
2023-01-17T15:29:05.160Z,6.00
2023-01-17T15:30:12.496Z,5.55
2023-01-17T15:31:17.886Z,9.40
2023-01-17T15:32:22.293Z,6.22
2023-01-17T15:33:24.894Z,11.15
2023-01-17T15:34:29.591Z,2.70
2023-01-17T15:35:31.678Z,8.85
2023-01-17T15:36:34.890Z,7.57
2023-01-17T15:37:40.455Z,12.50
2023-01-17T15:38:50.375Z,9.23
2023-01-17T15:40:06.203Z,6.97
2023-01-17T15:41:23.488Z,7.80
2023-01-17T15:42:28.407Z,5.90
2023-01-17T15:43:35.702Z,9.43
2023-01-17T15:44:48.401Z,6.72
2023-01-17T15:46:01.646Z,6.40
2023-01-17T15:47:05.119Z,5.70
2023-01-17T15:48:35.416Z,7.72
2023-01-17T15:49:37.915Z,7.82
2023-01-17T15:50:39.714Z,6.55
2023-01-17T15:51:48.531Z,6.70
2023-01-17T15:52:53.021Z,6.18
2023-01-17T15:53:54.635Z,7.13
2023-01-17T15:55:01.125Z,14.15
2023-01-17T15:56:20.579Z,7.47
2023-01-17T15:57:28.789Z,4.88
2023-01-17T15:58:30.804Z,8.48
2023-01-17T15:59:45.656Z,7.95
2023-01-17T16:00:48.407Z,7.95
2023-01-17T16:01:55.582Z,13.23
2023-01-17T16:02:59.268Z,6.13
2023-01-17T16:04:29.699Z,10.23
2023-01-17T16:05:43.307Z,9.55
2023-01-17T16:06:54.905Z,7.53
2023-01-17T16:08:26.010Z,7.35
2023-01-17T16:09:28.625Z,8.15
2023-01-17T16:10:32.114Z,3.85
2023-01-17T16:11:34.696Z,5.28
2023-01-17T16:12:41.306Z,6.18
2023-01-17T16:13:47.098Z,8.05
2023-01-17T16:15:06.275Z,5.88
2023-01-17T16:16:21.274Z,6.60
2023-01-17T16:17:24.498Z,6.20
2023-01-17T16:18:27.459Z,8.70
2023-01-17T16:19:30.454Z,11.40
2023-01-17T16:20:36.687Z,10.27
2023-01-17T16:21:40.472Z,5.43
2023-01-17T16:22:44.956Z,8.32
2023-01-17T16:23:47.861Z,12.57
2023-01-17T16:24:50.430Z,6.97
2023-01-17T16:25:53.859Z,7.75
2023-01-17T16:26:56.422Z,6.28
2023-01-17T16:27:59.128Z,8.75
2023-01-17T16:29:01.681Z,8.82
2023-01-17T16:30:04.726Z,8.23
2023-01-17T16:31:06.547Z,6.13
2023-01-17T16:32:09.454Z,6.65
2023-01-17T16:33:12.942Z,6.82
2023-01-17T16:34:15.497Z,8.23
2023-01-17T16:35:28.276Z,11.68
2023-01-17T16:36:30.762Z,11.85
2023-01-17T16:37:32.357Z,13.05
2023-01-17T16:38:34.907Z,4.72
2023-01-17T16:39:37.658Z,13.73
2023-01-17T16:40:40.690Z,9.68
2023-01-17T16:41:43.278Z,12.82
2023-01-17T16:42:45.126Z,15.82
2023-01-17T16:43:56.923Z,10.77
2023-01-17T16:45:05.670Z,10.10
2023-01-17T16:46:21.553Z,6.85
2023-01-17T16:47:26.403Z,9.95
2023-01-17T16:48:30.299Z,8.95
2023-01-17T16:49:42.800Z,16.48
2023-01-17T16:50:55.401Z,15.70
2023-01-17T16:51:56.945Z,14.05
2023-01-17T16:52:59.472Z,11.63
2023-01-17T16:54:02.561Z,7.55
2023-01-17T16:55:05.963Z,4.82
2023-01-17T16:56:11.199Z,7.20
2023-01-17T16:57:14.183Z,4.50
2023-01-17T16:58:25.987Z,6.28
2023-01-17T16:59:39.524Z,8.93
2023-01-17T17:00:48.926Z,7.38
2023-01-17T17:01:52.958Z,13.68
2023-01-17T17:03:05.503Z,6.18
2023-01-17T17:04:10.481Z,15.98
2023-01-17T17:05:12.081Z,10.50
2023-01-17T17:06:15.402Z,5.30
2023-01-17T17:07:18.333Z,6.75
2023-01-17T17:08:20.636Z,13.52
2023-01-17T17:09:24.141Z,20.05
2023-01-17T17:10:27.679Z,7.88
2023-01-17T17:11:30.363Z,12.75
2023-01-17T17:12:34.265Z,5.43
2023-01-17T17:13:36.837Z,7.30
2023-01-17T17:14:39.422Z,8.07
2023-01-17T17:15:42.833Z,11.13
2023-01-17T17:16:45.417Z,10.13
2023-01-17T17:17:47.992Z,14.90
2023-01-17T17:18:56.421Z,12.77
2023-01-17T17:20:00.242Z,9.48
2023-01-17T17:21:02.968Z,10.23
2023-01-17T17:22:15.448Z,9.38
2023-01-17T17:23:18.279Z,7.80
2023-01-17T17:24:20.800Z,11.77
2023-01-17T17:25:22.309Z,8.90
2023-01-17T17:26:26.614Z,9.48
2023-01-17T17:27:39.650Z,11.27
2023-01-17T17:28:42.271Z,9.60
2023-01-17T17:29:43.795Z,17.23
2023-01-17T17:30:46.318Z,10.63
2023-01-17T17:31:48.862Z,7.38
2023-01-17T17:32:50.381Z,8.38
2023-01-17T17:33:52.942Z,10.98
2023-01-17T17:34:55.450Z,11.88
2023-01-17T17:36:04.172Z,14.27
2023-01-17T17:37:07.683Z,17.75
2023-01-17T17:38:09.208Z,15.88
2023-01-17T17:39:14.643Z,15.20
2023-01-17T17:40:17.589Z,11.38
2023-01-17T17:41:20.910Z,8.80
2023-01-17T17:42:23.447Z,14.32
2023-01-17T17:43:26.646Z,16.70
2023-01-17T17:44:29.273Z,14.90
2023-01-17T17:45:31.753Z,19.20
2023-01-17T17:46:34.808Z,16.30
2023-01-17T17:47:37.385Z,15.68
2023-01-17T17:48:50.402Z,13.85
2023-01-17T17:49:53.296Z,11.25
2023-01-17T17:50:59.685Z,11.00
2023-01-17T17:52:07.827Z,15.65
2023-01-17T17:53:09.366Z,16.95
2023-01-17T17:54:13.935Z,15.40
2023-01-17T17:55:18.950Z,24.65
2023-01-17T17:56:22.806Z,13.65
2023-01-17T17:57:38.618Z,15.38
2023-01-17T17:58:40.252Z,19.02
2023-01-17T17:59:43.024Z,18.35
2023-01-17T18:00:44.562Z,18.35
2023-01-17T18:01:55.063Z,16.55
2023-01-17T18:02:56.644Z,15.27
2023-01-17T18:04:03.120Z,10.48
2023-01-17T18:05:06.529Z,18.73
2023-01-17T18:06:10.990Z,17.40
2023-01-17T18:07:14.826Z,19.02
2023-01-17T18:08:16.363Z,17.80
2023-01-17T18:09:18.935Z,13.40
2023-01-17T18:10:20.454Z,16.35
2023-01-17T18:11:25.952Z,17.25
2023-01-17T18:12:27.798Z,9.25
2023-01-17T18:13:31.250Z,14.90
2023-01-17T18:14:33.010Z,8.48
2023-01-17T18:15:35.555Z,13.68
2023-01-17T18:16:41.547Z,18.50
2023-01-17T18:17:44.077Z,9.05
2023-01-17T18:18:48.361Z,11.98
2023-01-17T18:19:50.839Z,11.23
2023-01-17T18:20:53.742Z,11.75
2023-01-17T18:21:56.408Z,15.98
2023-01-17T18:22:59.280Z,10.18
2023-01-17T18:24:03.619Z,13.35
2023-01-17T18:25:13.290Z,10.02
2023-01-17T18:26:16.721Z,11.30
2023-01-17T18:27:19.760Z,8.82
2023-01-17T18:28:21.275Z,17.75
2023-01-17T18:29:25.340Z,18.13
2023-01-17T18:30:27.827Z,16.65
2023-01-17T18:31:32.743Z,10.95
2023-01-17T18:32:44.529Z,14.07
2023-01-17T18:33:47.073Z,16.90
2023-01-17T18:34:59.576Z,7.68
2023-01-17T18:36:05.138Z,6.28
2023-01-17T18:37:17.723Z,14.32
2023-01-17T18:38:37.745Z,8.25
2023-01-17T18:39:50.251Z,14.68
2023-01-17T18:41:02.353Z,9.88
2023-01-17T18:42:05.173Z,9.60
2023-01-17T18:43:06.694Z,9.38
2023-01-17T18:44:12.055Z,15.82
2023-01-17T18:45:22.083Z,9.95
2023-01-17T18:46:26.655Z,11.38
2023-01-17T18:47:30.136Z,12.45
2023-01-17T18:48:35.459Z,10.18
2023-01-17T18:49:38.477Z,7.22
2023-01-17T18:50:39.988Z,19.02
2023-01-17T18:51:46.362Z,11.30
2023-01-17T18:52:48.872Z,8.30
2023-01-17T18:53:53.911Z,8.13
2023-01-17T18:54:56.388Z,15.65
2023-01-17T18:56:09.958Z,13.07
2023-01-17T18:57:13.009Z,10.20
2023-01-17T18:58:15.179Z,17.15
2023-01-17T18:59:19.533Z,13.27
2023-01-17T19:00:31.135Z,10.23
2023-01-17T19:01:44.443Z,13.30
2023-01-17T19:02:56.033Z,12.40
2023-01-17T19:04:08.812Z,11.90
2023-01-17T19:05:11.820Z,12.18
2023-01-17T19:06:18.076Z,22.70
2023-01-17T19:07:28.959Z,6.15
2023-01-17T19:08:35.685Z,14.43
2023-01-17T19:09:49.533Z,11.30
2023-01-17T19:10:54.403Z,17.10
2023-01-17T19:11:58.155Z,22.33
2023-01-17T19:13:10.486Z,19.17
2023-01-17T19:14:23.008Z,16.20
2023-01-17T19:15:36.018Z,10.65
2023-01-17T19:16:41.208Z,9.50
2023-01-17T19:17:43.786Z,16.77
2023-01-17T19:18:46.195Z,13.43
2023-01-17T19:19:49.269Z,12.93
2023-01-17T19:20:50.814Z,14.15
2023-01-17T19:21:53.727Z,12.45
2023-01-17T19:23:05.390Z,11.48
2023-01-17T19:24:08.777Z,14.57
2023-01-17T19:25:12.599Z,12.73
2023-01-17T19:26:16.581Z,15.65
2023-01-17T19:27:29.110Z,17.50
2023-01-17T19:28:44.194Z,14.57
2023-01-17T19:29:46.670Z,11.18
2023-01-17T19:30:49.559Z,20.25
2023-01-17T19:31:52.634Z,14.48
2023-01-17T19:32:55.886Z,14.77
2023-01-17T19:34:00.977Z,16.27
2023-01-17T19:35:02.564Z,15.98
2023-01-17T19:36:08.763Z,10.85
2023-01-17T19:37:21.245Z,21.92
2023-01-17T19:38:22.773Z,16.27
2023-01-17T19:39:28.149Z,11.48
2023-01-17T19:40:31.378Z,11.15
2023-01-17T19:41:41.538Z,12.98
2023-01-17T19:42:54.033Z,12.23
2023-01-17T19:44:08.738Z,11.77
2023-01-17T19:45:13.226Z,14.80
2023-01-17T19:46:18.812Z,13.43
2023-01-17T19:47:21.532Z,16.77
2023-01-17T19:48:23.046Z,14.48
2023-01-17T19:49:25.522Z,14.13
2023-01-17T19:50:27.270Z,24.13
2023-01-17T19:51:30.074Z,17.15
2023-01-17T19:52:36.266Z,17.77
2023-01-17T19:53:40.523Z,11.63
2023-01-17T19:54:43.031Z,16.92
2023-01-17T19:55:56.861Z,14.57
2023-01-17T19:57:09.355Z,18.25
2023-01-17T19:58:12.521Z,13.32
2023-01-17T19:59:16.145Z,19.25
2023-01-17T20:00:20.398Z,20.55
2023-01-17T20:01:30.000Z,18.55
2023-01-17T20:02:34.565Z,21.20
2023-01-17T20:03:38.323Z,14.93
2023-01-17T20:04:40.928Z,16.58
2023-01-17T20:05:57.493Z,15.88
2023-01-17T20:06:59.971Z,17.35
2023-01-17T20:08:02.992Z,14.68
2023-01-17T20:09:06.520Z,17.90
2023-01-17T20:10:20.871Z,14.10
2023-01-17T20:11:34.795Z,19.13
2023-01-17T20:12:47.639Z,18.80
2023-01-17T20:13:53.800Z,18.65
2023-01-17T20:14:56.253Z,18.73
2023-01-17T20:16:02.531Z,23.75
2023-01-17T20:17:05.051Z,22.27
2023-01-17T20:18:06.607Z,18.40
2023-01-17T20:19:09.097Z,17.60
2023-01-17T20:20:22.661Z,18.67
2023-01-17T20:21:26.403Z,17.98
2023-01-17T20:22:28.937Z,17.35
2023-01-17T20:23:35.287Z,26.27
2023-01-17T20:24:47.908Z,17.73
2023-01-17T20:26:01.463Z,16.52
2023-01-17T20:27:04.800Z,22.65
2023-01-17T20:28:07.333Z,22.77
2023-01-17T20:29:13.383Z,19.95
2023-01-17T20:30:20.511Z,19.15
2023-01-17T20:31:26.662Z,18.90
2023-01-17T20:32:29.249Z,22.90
2023-01-17T20:33:42.085Z,18.33
2023-01-17T20:34:45.545Z,17.50
2023-01-17T20:35:47.137Z,19.30
2023-01-17T20:36:49.669Z,23.40
2023-01-17T20:38:02.163Z,22.77
2023-01-17T20:39:15.736Z,21.73
2023-01-17T20:40:20.133Z,20.40
2023-01-17T20:41:24.077Z,22.33
2023-01-17T20:42:26.943Z,21.50
2023-01-17T20:43:32.166Z,18.25
2023-01-17T20:44:34.704Z,19.23
2023-01-17T20:45:36.281Z,21.00
2023-01-17T20:46:41.137Z,20.52
2023-01-17T20:47:54.904Z,22.50
2023-01-17T20:49:00.585Z,25.88
2023-01-17T20:50:05.965Z,25.90
2023-01-17T20:51:10.452Z,27.02
2023-01-17T20:52:22.970Z,23.25
2023-01-17T20:53:35.772Z,19.98
2023-01-17T20:54:38.244Z,37.90
2023-01-17T20:55:39.856Z,20.23
2023-01-17T20:56:43.291Z,17.83
2023-01-17T20:57:47.125Z,23.05
2023-01-17T20:58:51.767Z,20.75
2023-01-17T20:59:55.505Z,17.00
2023-01-17T21:00:58.867Z,18.65
2023-01-17T21:02:02.891Z,26.60
2023-01-17T21:03:04.614Z,26.10
2023-01-17T21:04:09.877Z,15.00
2023-01-17T21:05:12.732Z,19.05
2023-01-17T21:06:25.940Z,17.08
2023-01-17T21:07:37.255Z,21.88
2023-01-17T21:08:41.519Z,19.05
2023-01-17T21:09:44.056Z,21.52
2023-01-17T21:10:47.435Z,16.65
2023-01-17T21:11:50.382Z,18.13
2023-01-17T21:12:54.404Z,18.58
2023-01-17T21:13:57.286Z,19.63
2023-01-17T21:15:11.238Z,15.98
2023-01-17T21:16:16.295Z,22.42
2023-01-17T21:17:19.138Z,22.90
2023-01-17T21:18:31.831Z,19.17
2023-01-17T21:19:44.478Z,17.67
2023-01-17T21:20:54.688Z,21.42
2023-01-17T21:21:57.201Z,20.38
2023-01-17T21:22:58.732Z,22.08
2023-01-17T21:24:01.589Z,18.70
2023-01-17T21:25:04.116Z,19.38
2023-01-17T21:26:06.798Z,21.50
2023-01-17T21:27:09.320Z,18.90
2023-01-17T21:28:23.045Z,30.42
2023-01-17T21:29:28.928Z,17.90
2023-01-17T21:30:31.241Z,21.25
2023-01-17T21:31:45.014Z,18.02
2023-01-17T21:32:57.504Z,21.33
2023-01-17T21:34:02.274Z,21.02
2023-01-17T21:35:05.157Z,21.55
2023-01-17T21:36:08.392Z,18.10
2023-01-17T21:37:11.270Z,19.70
2023-01-17T21:38:14.276Z,18.08
2023-01-17T21:39:29.161Z,23.38
2023-01-17T21:40:30.733Z,18.52
2023-01-17T21:41:35.437Z,18.23
2023-01-17T21:42:39.288Z,18.67
2023-01-17T21:43:55.628Z,23.77
2023-01-17T21:44:58.268Z,25.73
2023-01-17T21:46:02.881Z,19.77
2023-01-17T21:47:05.494Z,15.13
2023-01-17T21:48:12.242Z,15.77
2023-01-17T21:49:15.432Z,18.33
2023-01-17T21:50:32.078Z,18.65
2023-01-17T21:51:58.612Z,17.58
2023-01-17T21:53:11.115Z,20.00
2023-01-17T21:54:12.812Z,17.88
2023-01-17T21:55:32.876Z,15.57
2023-01-17T21:57:03.266Z,20.52
2023-01-17T21:58:34.103Z,16.38
2023-01-17T21:59:41.536Z,19.70
2023-01-17T22:00:46.525Z,20.02
2023-01-17T22:01:53.440Z,19.02
2023-01-17T22:02:59.089Z,22.83
2023-01-17T22:04:04.630Z,21.95
2023-01-17T22:05:18.427Z,16.15
2023-01-17T22:06:21.222Z,21.27
2023-01-17T22:07:25.107Z,16.38
2023-01-17T22:08:31.444Z,16.73
2023-01-17T22:09:44.002Z,19.75
2023-01-17T22:10:45.576Z,19.50
2023-01-17T22:11:48.141Z,17.08
2023-01-17T22:12:51.717Z,15.55
2023-01-17T22:14:05.357Z,20.38
2023-01-17T22:15:10.361Z,19.15
2023-01-17T22:16:14.884Z,19.42
2023-01-17T22:17:16.502Z,19.67
2023-01-17T22:18:19.566Z,16.65
2023-01-17T22:19:22.411Z,18.55
2023-01-17T22:20:24.939Z,18.75
2023-01-17T22:21:29.282Z,18.33
2023-01-17T22:22:32.218Z,22.58
2023-01-17T22:23:39.939Z,19.50
2023-01-17T22:24:41.471Z,21.55
2023-01-17T22:25:43.935Z,21.50
2023-01-17T22:26:45.459Z,14.48
2023-01-17T22:27:47.981Z,17.77
2023-01-17T22:28:50.583Z,18.38
2023-01-17T22:29:53.065Z,17.05
2023-01-17T22:30:59.162Z,17.17
2023-01-17T22:32:01.008Z,18.73
2023-01-17T22:33:06.194Z,18.85
2023-01-17T22:34:13.422Z,17.88
2023-01-17T22:35:16.189Z,21.73
2023-01-17T22:36:17.738Z,22.67
2023-01-17T22:37:20.540Z,21.00
2023-01-17T22:38:33.680Z,16.98
2023-01-17T22:39:39.179Z,15.70
2023-01-17T22:40:51.653Z,22.25
2023-01-17T22:41:54.251Z,19.65
2023-01-17T22:42:57.131Z,17.17
2023-01-17T22:44:02.105Z,21.17
2023-01-17T22:45:13.171Z,21.98
2023-01-17T22:46:19.712Z,17.48
2023-01-17T22:47:21.283Z,24.98
2023-01-17T22:48:23.786Z,20.08
2023-01-17T22:49:25.314Z,21.80
2023-01-17T22:50:27.814Z,18.33
2023-01-17T22:51:29.533Z,18.23
2023-01-17T22:52:32.679Z,20.17
2023-01-17T22:53:34.775Z,22.80
2023-01-17T22:54:37.257Z,25.98
2023-01-17T22:55:39.206Z,21.17
2023-01-17T22:56:41.752Z,21.85
2023-01-17T22:57:44.546Z,17.45
2023-01-17T22:58:48.690Z,18.05
2023-01-17T22:59:51.967Z,20.17
2023-01-17T23:00:53.489Z,22.55